Terminal Aerodrome Forecast
Issued by NWS North Platte, NE

Home | Current Version | Previous Version | Text Only | Print | Product List | Glossary Off
Versions: 1 2 3 4 5 6 7 8 9 10 11 12 13 14 15 16 17 18 19 20 21

435
FTUS43 KLBF 091129
TAFVTN
TAF
KVTN 091129Z 0912/1012 VRB06KT P6SM BKN070 OVC120
     FM091600 16010G16KT P6SM BKN060 OVC120
      TEMPO 0916/0918 6SM -SN BR
     FM092300 VRB05KT P6SM SCT120=

USA.gov is the U.S. government's official web portal to all federal, state and local government web resources and services.